Calder, Canada
Current Conditions -  °F | °C
As of 5:00 PM on Friday 24 Oct 2014 (Local Time) from CYQV Reporting Station
Clear Clear  
Wind Chill: 52°   Ceiling: Unl
Heat Index: 52°   Visibility: 9mi
Dew Point: 32°   Wind: 21mph
Humidity: 47%   Direction: 280°W
Pressure: 29.77"   Gusts: 30mph
Location:  51.15°N, 101.75°W
Report Text: CYQV 242300Z AUTO 28018G26KT 9SM CLR 11/00 A2977 RMK PRESRR SLP093 DENSITY ALT 1700FT
Loading
Personal Weather Stations






























Interactive Weather Map
Tropical Storm Tracking
New forecast layout! Learn more

10-Day Weather Forecast

Advertisements
Track Severe Weather on mobile